Portada
METAR-TAF:

METAR-TAF

Aeroports :

Saint-Denis, Reunió

latitud: 20-53S, longitud: 055-31E, altitud: 21 m

Observació

L'informe es va fer fa 32 minuts, a les 14:00 UTC
Vent 3 kt amb direcció variable
Temperatura 25°C
Humitat 89%
Pressió 1017 hPa
Visibilitat: 2700 m
pluja

METAR: FMEE 211400Z AUTO VRB03KT 6000 2700 -RA BKN011/// BKN019/// BKN024/// ///TCU 25/23 Q1017 TEMPO 3500 SHRA FEW020TCU

Hora: 18:32 (14:32 UTC)

Pronòstic

L'informe es va fer fa 3 hores i 32 minuts, a les 11:00 UTC
Pronòstic vàlid del 21 a les 12 UTC al 22 a les 18 UTC
Vent 6 kt del Est
Visibilitat 10 km o més
Escasses núvols a una alçada de 2000 ft
Núvols disperses a una alçada de 4000 ft
Cel ennuvolat a una alçada de 14000 ft
Probabilitat 30% :
Temporalment
l' 21 a les 14 UTC al 22 a les 04 UTC
Visibilitat: 3500 m
Escasses núvols a una alçada de 2000 ft, Cumulus congestus.
xàfecs de pluja

TAF: FMEE 211100Z 2112/2218 08006KT 9999 FEW020 SCT040 BKN140 PROB30 TEMPO 2114/2204 3500 SHRA FEW020TCU

Observacions i pronòstics meteorològics de més de 4000 aeroports (METAR i TAF).

Les estacions disponibles són els punts grocs i vermells al mapa.

Posi el ratolí al punt desitjat per veure el nom de l'estació.

Feu clic per veure les observacions i els pronòstics meteorològics.

Per canviar el mapa: feu clic els botons verds amb una creu de color negre per apropar; al botó verd amb un guió per allunyar la imatge; o en les fletxes verdes per a mapes adjacents.


METAR-TAF: